Time;durP1;ratioP1;P1;durP2;ratioP2;P2;SDS_P1;SDS_P2;PMS_P1;PMS_P2;Temp;Humidity;BMP_temperature;BMP_pressure;BME280_temperature;BME280_humidity;BME280_pressure;Samples;Min_cycle;Max_cycle;Signal;HPM_P1;HPM_P2
2021/01/25 00:00:25;;;;;;;9.57;7.07;;;;;;;;;;5059777;28;20198;-88
2021/01/25 00:02:53;;;;;;;10.43;7.85;;;;;;;;;;5059991;28;20198;-88
2021/01/25 00:05:21;;;;;;;10.05;7.90;;;;;;;;;;5059562;28;20229;-89
2021/01/25 00:07:48;;;;;;;11.02;7.63;;;;;;;;;;5046783;28;20178;-89
2021/01/25 00:10:14;;;;;;;10.20;7.82;;;;;;;;;;5039459;28;20536;-88
2021/01/25 00:12:41;;;;;;;12.35;8.48;;;;;;;;;;5039940;28;20208;-89
2021/01/25 00:15:10;;;;;;;13.60;8.80;;;;;;;;;;4989726;28;20222;-90
2021/01/25 00:17:37;;;;;;;9.57;7.30;;;;;;;;;;5039608;28;20270;-89
2021/01/25 00:20:06;;;;;;;9.38;6.80;;;;;;;;;;5039883;28;20203;-89
2021/01/25 00:22:33;;;;;;;8.63;6.75;;;;;;;;;;5039463;28;20178;-89
2021/01/25 00:25:00;;;;;;;11.45;6.68;;;;;;;;;;5040272;28;20202;-89
2021/01/25 00:27:27;;;;;;;9.55;6.93;;;;;;;;;;5039297;28;20564;-89
2021/01/25 00:29:54;;;;;;;9.07;6.78;;;;;;;;;;5039022;28;20804;-89
2021/01/25 00:32:21;;;;;;;10.48;7.25;;;;;;;;;;5039326;28;20183;-90
2021/01/25 00:34:48;;;;;;;10.05;7.03;;;;;;;;;;5039054;28;20484;-89
2021/01/25 00:37:16;;;;;;;10.98;7.68;;;;;;;;;;5039462;28;20206;-89
2021/01/25 00:39:43;;;;;;;11.35;7.80;;;;;;;;;;5039697;28;20206;-89
2021/01/25 00:42:10;;;;;;;9.38;7.40;;;;;;;;;;5039489;28;20478;-89
2021/01/25 00:44:37;;;;;;;8.88;7.22;;;;;;;;;;4989560;28;20195;-89
2021/01/25 00:47:04;;;;;;;11.07;7.45;;;;;;;;;;5039235;28;20194;-89
2021/01/25 00:49:30;;;;;;;9.68;6.97;;;;;;;;;;5039078;28;20183;-88
2021/01/25 00:51:57;;;;;;;10.77;6.80;;;;;;;;;;5038800;28;20583;-90
2021/01/25 00:54:25;;;;;;;8.88;6.30;;;;;;;;;;5038310;28;20188;-90
2021/01/25 00:56:52;;;;;;;8.35;6.85;;;;;;;;;;5038841;28;20226;-89
2021/01/25 00:59:19;;;;;;;10.27;7.90;;;;;;;;;;5038583;28;20230;-89
2021/01/25 01:01:46;;;;;;;9.50;7.07;;;;;;;;;;5039263;28;20206;-89
2021/01/25 01:04:13;;;;;;;12.73;8.43;;;;;;;;;;5039010;28;20281;-90
2021/01/25 01:06:41;;;;;;;9.73;7.47;;;;;;;;;;5039051;28;20282;-90
2021/01/25 01:09:08;;;;;;;12.05;7.97;;;;;;;;;;5038656;28;20270;-89
2021/01/25 01:11:36;;;;;;;10.80;7.63;;;;;;;;;;5039051;28;20195;-90
2021/01/25 01:14:03;;;;;;;10.93;8.02;;;;;;;;;;5039057;28;20451;-89
2021/01/25 01:16:30;;;;;;;9.68;7.55;;;;;;;;;;5038629;28;20218;-89
2021/01/25 01:18:57;;;;;;;9.95;7.75;;;;;;;;;;5038536;28;20204;-89
2021/01/25 01:21:24;;;;;;;13.73;9.02;;;;;;;;;;5038532;28;20253;-89
2021/01/25 01:23:51;;;;;;;8.68;7.15;;;;;;;;;;5038417;28;20640;-89
2021/01/25 01:26:19;;;;;;;11.82;7.78;;;;;;;;;;5039008;28;20209;-89
2021/01/25 01:28:47;;;;;;;10.50;7.45;;;;;;;;;;5038592;28;20222;-90
2021/01/25 01:31:14;;;;;;;9.00;6.55;;;;;;;;;;5038596;28;20182;-90
2021/01/25 01:33:41;;;;;;;10.93;7.78;;;;;;;;;;5039058;28;20179;-91
2021/01/25 01:36:08;;;;;;;9.52;7.57;;;;;;;;;;5038501;28;20591;-90
2021/01/25 01:38:35;;;;;;;10.13;7.47;;;;;;;;;;5039104;28;20566;-90
2021/01/25 01:41:02;;;;;;;11.38;7.47;;;;;;;;;;5038521;28;20544;-90
2021/01/25 01:43:29;;;;;;;12.45;7.95;;;;;;;;;;5038622;28;20294;-90
2021/01/25 01:45:57;;;;;;;11.55;8.10;;;;;;;;;;5039097;28;20248;-89
2021/01/25 01:48:25;;;;;;;10.63;7.53;;;;;;;;;;5038641;28;20558;-89
2021/01/25 01:50:52;;;;;;;9.50;7.40;;;;;;;;;;5038232;28;20218;-89
2021/01/25 01:53:19;;;;;;;11.70;8.70;;;;;;;;;;5038110;28;20182;-90
2021/01/25 01:55:47;;;;;;;10.38;8.15;;;;;;;;;;5038390;28;20208;-90
2021/01/25 01:58:15;;;;;;;9.65;7.38;;;;;;;;;;5038100;28;20325;-89
2021/01/25 02:00:42;;;;;;;12.90;8.93;;;;;;;;;;5038091;28;20525;-89
2021/01/25 02:03:10;;;;;;;10.82;8.02;;;;;;;;;;5038260;28;20225;-89
2021/01/25 02:05:39;;;;;;;10.50;7.70;;;;;;;;;;5040449;28;20183;-89
2021/01/25 02:08:06;;;;;;;9.80;7.68;;;;;;;;;;5042027;28;20265;-89
2021/01/25 02:10:34;;;;;;;12.93;8.52;;;;;;;;;;5042265;28;20193;-89
2021/01/25 02:13:05;;;;;;;8.77;7.60;;;;;;;;;;5042161;28;20282;-89
2021/01/25 02:15:32;;;;;;;13.55;9.07;;;;;;;;;;5041868;28;20193;-88
2021/01/25 02:17:59;;;;;;;10.48;7.32;;;;;;;;;;5041876;28;20185;-89
2021/01/25 02:20:33;;;;;;;10.43;8.18;;;;;;;;;;5041932;28;20269;-89
2021/01/25 02:23:27;;;;;;;10.73;7.93;;;;;;;;;;5041776;28;20186;-89
2021/01/25 02:26:01;;;;;;;12.60;9.18;;;;;;;;;;5041937;28;20192;-88
2021/01/25 02:28:29;;;;;;;13.52;7.63;;;;;;;;;;5041755;28;20595;-89
2021/01/25 02:30:56;;;;;;;9.85;7.30;;;;;;;;;;5041658;28;20212;-88
2021/01/25 02:33:24;;;;;;;9.23;8.18;;;;;;;;;;5041507;28;20186;-88
2021/01/25 02:35:51;;;;;;;8.77;7.70;;;;;;;;;;5041709;28;20277;-89
2021/01/25 02:38:19;;;;;;;9.50;7.70;;;;;;;;;;5041756;28;20544;-89
2021/01/25 02:40:47;;;;;;;10.10;7.43;;;;;;;;;;5041359;28;20182;-87
2021/01/25 02:43:15;;;;;;;10.85;8.20;;;;;;;;;;5041962;28;20198;-88
2021/01/25 02:45:44;;;;;;;10.27;7.72;;;;;;;;;;5041286;28;20197;-89
2021/01/25 02:48:11;;;;;;;9.18;6.60;;;;;;;;;;5041874;28;20551;-89
2021/01/25 02:50:38;;;;;;;8.80;7.60;;;;;;;;;;5041216;28;20191;-89
2021/01/25 02:53:05;;;;;;;11.25;6.50;;;;;;;;;;5042263;28;20198;-89
2021/01/25 02:55:33;;;;;;;7.15;6.40;;;;;;;;;;5041503;28;20582;-89
2021/01/25 02:58:00;;;;;;;8.55;7.00;;;;;;;;;;5041445;28;20240;-90
2021/01/25 03:00:27;;;;;;;8.45;6.82;;;;;;;;;;5041261;28;20191;-89
2021/01/25 03:02:55;;;;;;;6.10;5.50;;;;;;;;;;5041342;28;20195;-89
2021/01/25 03:05:22;;;;;;;9.75;6.40;;;;;;;;;;5041291;28;20185;-89
2021/01/25 03:07:51;;;;;;;9.10;7.07;;;;;;;;;;5040991;28;20373;-90
2021/01/25 03:10:18;;;;;;;8.82;6.43;;;;;;;;;;5041780;28;20212;-90
2021/01/25 03:12:45;;;;;;;8.48;6.53;;;;;;;;;;5041775;28;20190;-90
2021/01/25 03:15:14;;;;;;;8.65;6.65;;;;;;;;;;5041200;28;20186;-89
2021/01/25 03:17:41;;;;;;;6.80;5.75;;;;;;;;;;5040545;28;20238;-89
2021/01/25 03:20:10;;;;;;;8.20;6.55;;;;;;;;;;5041626;28;20195;-88
2021/01/25 03:22:38;;;;;;;7.65;6.82;;;;;;;;;;5040986;28;20194;-89
2021/01/25 03:25:07;;;;;;;8.90;7.10;;;;;;;;;;5041003;28;20252;-89
2021/01/25 03:27:33;;;;;;;12.00;6.82;;;;;;;;;;5040166;28;20199;-89
2021/01/25 03:30:01;;;;;;;8.98;7.32;;;;;;;;;;5040441;28;20193;-88
2021/01/25 03:32:27;;;;;;;8.75;6.40;;;;;;;;;;5040382;28;20191;-89
2021/01/25 03:34:54;;;;;;;7.55;6.75;;;;;;;;;;5040640;28;20459;-88
2021/01/25 03:37:22;;;;;;;8.50;6.57;;;;;;;;;;5040061;28;20219;-88
2021/01/25 03:39:49;;;;;;;9.65;6.90;;;;;;;;;;5040068;28;20182;-88
2021/01/25 03:42:16;;;;;;;12.48;6.55;;;;;;;;;;5040589;28;20183;-89
2021/01/25 03:44:43;;;;;;;8.93;7.03;;;;;;;;;;5040341;28;20467;-88
2021/01/25 03:47:10;;;;;;;8.02;6.65;;;;;;;;;;5040445;28;20182;-87
2021/01/25 03:49:37;;;;;;;7.30;5.80;;;;;;;;;;5039983;28;20213;-88
2021/01/25 03:52:04;;;;;;;8.18;6.05;;;;;;;;;;5040296;28;20279;-87
2021/01/25 03:54:32;;;;;;;7.00;5.60;;;;;;;;;;5039966;28;20560;-88
2021/01/25 03:57:00;;;;;;;8.63;6.57;;;;;;;;;;5040379;28;20222;-89
2021/01/25 03:59:27;;;;;;;9.15;6.95;;;;;;;;;;5039413;28;20269;-89
2021/01/25 04:01:54;;;;;;;7.65;5.80;;;;;;;;;;5040304;28;20457;-89
2021/01/25 04:04:21;;;;;;;7.22;6.18;;;;;;;;;;5040805;28;20474;-89
2021/01/25 04:06:48;;;;;;;8.85;6.32;;;;;;;;;;5039793;28;20267;-89
2021/01/25 04:09:15;;;;;;;7.85;6.22;;;;;;;;;;5039946;28;20183;-89
2021/01/25 04:11:43;;;;;;;7.00;5.07;;;;;;;;;;5040132;28;20195;-89
2021/01/25 04:14:10;;;;;;;7.40;5.15;;;;;;;;;;5039981;28;20245;-89
2021/01/25 04:16:37;;;;;;;5.45;4.88;;;;;;;;;;5039576;28;20676;-88
2021/01/25 04:19:04;;;;;;;8.52;6.40;;;;;;;;;;5039898;28;20183;-88
2021/01/25 04:21:32;;;;;;;6.13;5.53;;;;;;;;;;5039681;28;20191;-89
2021/01/25 04:23:59;;;;;;;6.93;5.30;;;;;;;;;;5039795;28;20206;-89
2021/01/25 04:26:26;;;;;;;7.00;5.70;;;;;;;;;;5040628;28;20197;-89
2021/01/25 04:28:54;;;;;;;5.30;4.80;;;;;;;;;;5038272;28;20221;-88
2021/01/25 04:31:21;;;;;;;7.57;6.22;;;;;;;;;;5039536;28;20187;-89
2021/01/25 04:33:48;;;;;;;9.15;5.20;;;;;;;;;;5039344;28;20643;-89
2021/01/25 04:36:15;;;;;;;8.18;5.68;;;;;;;;;;5039570;28;20190;-89
2021/01/25 04:38:42;;;;;;;6.18;5.32;;;;;;;;;;5039488;28;20217;-89
2021/01/25 04:41:09;;;;;;;9.60;6.47;;;;;;;;;;5039883;28;20213;-88
2021/01/25 04:43:36;;;;;;;10.40;6.60;;;;;;;;;;5039706;28;20209;-89
2021/01/25 04:46:04;;;;;;;10.73;7.10;;;;;;;;;;5039101;28;20274;-88
2021/01/25 04:48:31;;;;;;;12.70;8.73;;;;;;;;;;5039480;28;20202;-89
2021/01/25 04:51:00;;;;;;;17.83;10.25;;;;;;;;;;5038876;28;20266;-89
2021/01/25 04:53:27;;;;;;;23.85;12.23;;;;;;;;;;5039686;28;20213;-88
2021/01/25 04:55:54;;;;;;;16.23;8.63;;;;;;;;;;5039794;28;20183;-89
2021/01/25 04:58:21;;;;;;;12.57;9.27;;;;;;;;;;5038593;28;20257;-89
2021/01/25 05:00:48;;;;;;;14.70;9.73;;;;;;;;;;5039014;28;20178;-88
2021/01/25 05:03:16;;;;;;;16.25;10.20;;;;;;;;;;5038759;28;20179;-88
2021/01/25 05:05:43;;;;;;;14.43;7.97;;;;;;;;;;5038859;28;20523;-87
2021/01/25 05:08:10;;;;;;;11.07;8.23;;;;;;;;;;5039026;28;20451;-89
2021/01/25 05:10:38;;;;;;;14.65;8.07;;;;;;;;;;5038787;28;20209;-89
2021/01/25 05:13:05;;;;;;;13.68;8.82;;;;;;;;;;5039358;28;20205;-90
2021/01/25 05:15:34;;;;;;;9.35;6.53;;;;;;;;;;5039811;28;20209;-89
2021/01/25 05:18:04;;;;;;;8.27;7.07;;;;;;;;;;5038813;28;20256;-89
2021/01/25 05:20:33;;;;;;;15.68;7.47;;;;;;;;;;5038642;28;20213;-90
2021/01/25 05:23:02;;;;;;;12.98;7.28;;;;;;;;;;5038506;28;20270;-89
2021/01/25 05:25:32;;;;;;;10.18;7.25;;;;;;;;;;5038381;28;20191;-89
2021/01/25 05:28:00;;;;;;;8.45;7.10;;;;;;;;;;5039308;28;20225;-89
2021/01/25 05:30:35;;;;;;;10.88;7.55;;;;;;;;;;5038120;28;20213;-89
2021/01/25 05:33:02;;;;;;;10.82;7.30;;;;;;;;;;5038613;28;20232;-89
2021/01/25 05:35:32;;;;;;;10.85;7.50;;;;;;;;;;5038561;28;20181;-89
2021/01/25 05:38:02;;;;;;;7.75;6.95;;;;;;;;;;5038431;28;20599;-90
2021/01/25 05:40:31;;;;;;;8.70;6.63;;;;;;;;;;5037956;28;20210;-88
2021/01/25 05:42:59;;;;;;;7.60;5.70;;;;;;;;;;5038982;28;20212;-89
2021/01/25 05:45:29;;;;;;;9.02;7.25;;;;;;;;;;5038528;28;20277;-88
2021/01/25 05:47:58;;;;;;;9.65;7.68;;;;;;;;;;5038189;28;20182;-89
2021/01/25 05:50:33;;;;;;;10.93;7.97;;;;;;;;;;5038532;28;20179;-87
2021/01/25 05:53:02;;;;;;;14.70;9.40;;;;;;;;;;5038754;28;20478;-88
2021/01/25 05:55:29;;;;;;;13.73;8.88;;;;;;;;;;5038303;28;20470;-88
2021/01/25 05:57:57;;;;;;;12.18;8.32;;;;;;;;;;5038009;28;20226;-89
2021/01/25 06:00:25;;;;;;;11.50;8.88;;;;;;;;;;5038218;28;20178;-89
2021/01/25 06:02:53;;;;;;;12.65;8.65;;;;;;;;;;5037831;28;20198;-88
2021/01/25 06:05:35;;;;;;;11.93;8.90;;;;;;;;;;5038579;28;20206;-89
2021/01/25 06:08:14;;;;;;;10.70;8.35;;;;;;;;;;5038017;28;20187;-87
2021/01/25 06:10:50;;;;;;;12.68;9.32;;;;;;;;;;5038249;28;20197;-88
2021/01/25 06:13:22;;;;;;;14.77;9.02;;;;;;;;;;5037773;28;20571;-88
2021/01/25 06:15:51;;;;;;;10.98;8.18;;;;;;;;;;5038989;28;20213;-88
2021/01/25 06:18:19;;;;;;;13.73;9.52;;;;;;;;;;5037412;28;20241;-88
2021/01/25 06:20:49;;;;;;;12.50;9.63;;;;;;;;;;5038223;28;20175;-88
2021/01/25 06:23:16;;;;;;;14.18;10.90;;;;;;;;;;5038233;28;20190;-88
2021/01/25 06:25:43;;;;;;;12.15;9.18;;;;;;;;;;5038287;28;20183;-88
2021/01/25 06:28:15;;;;;;;12.95;10.15;;;;;;;;;;5037986;28;20219;-89
2021/01/25 06:30:44;;;;;;;11.90;8.70;;;;;;;;;;5038997;28;20552;-89
2021/01/25 06:33:15;;;;;;;13.13;9.90;;;;;;;;;;5044695;28;20201;-90
2021/01/25 06:35:45;;;;;;;17.83;9.90;;;;;;;;;;5056487;28;20198;-89
2021/01/25 06:38:19;;;;;;;14.30;9.50;;;;;;;;;;5051126;28;20206;-89
2021/01/25 06:40:48;;;;;;;15.25;10.68;;;;;;;;;;5057660;28;20307;-88
2021/01/25 06:43:17;;;;;;;18.30;9.82;;;;;;;;;;5057735;28;20229;-89
2021/01/25 06:45:45;;;;;;;12.50;9.75;;;;;;;;;;5051182;28;20271;-89
2021/01/25 06:48:13;;;;;;;14.52;11.05;;;;;;;;;;5038451;28;20205;-89
2021/01/25 06:50:45;;;;;;;12.82;9.07;;;;;;;;;;5038130;28;20202;-89
2021/01/25 06:53:13;;;;;;;17.20;10.80;;;;;;;;;;5038821;28;20467;-89
2021/01/25 06:55:43;;;;;;;16.98;10.75;;;;;;;;;;5060702;28;20552;-89
2021/01/25 06:58:11;;;;;;;13.85;10.50;;;;;;;;;;5061034;28;20226;-90
2021/01/25 07:00:40;;;;;;;16.30;11.32;;;;;;;;;;5052576;28;20581;-89
2021/01/25 07:03:08;;;;;;;13.77;10.13;;;;;;;;;;5041443;28;20186;-90
2021/01/25 07:05:38;;;;;;;15.95;10.60;;;;;;;;;;5041380;28;20210;-89
2021/01/25 07:08:22;;;;;;;17.25;12.55;;;;;;;;;;5041230;28;20182;-89
2021/01/25 07:10:57;;;;;;;16.42;11.25;;;;;;;;;;5041510;28;20194;-89
2021/01/25 07:13:26;;;;;;;18.90;12.50;;;;;;;;;;5041246;28;20186;-89
2021/01/25 07:15:54;;;;;;;16.33;11.10;;;;;;;;;;5041579;28;20255;-89
2021/01/25 07:18:22;;;;;;;14.57;10.80;;;;;;;;;;5040858;28;20479;-89
2021/01/25 07:20:50;;;;;;;14.75;11.10;;;;;;;;;;5041174;28;20201;-89
2021/01/25 07:23:19;;;;;;;15.80;11.07;;;;;;;;;;5040850;28;20182;-89
2021/01/25 07:25:57;;;;;;;17.90;10.68;;;;;;;;;;5040591;28;20559;-89
2021/01/25 07:28:26;;;;;;;16.90;12.00;;;;;;;;;;5041524;28;20237;-89
2021/01/25 07:30:53;;;;;;;17.52;13.32;;;;;;;;;;5041148;28;20195;-89
2021/01/25 07:33:21;;;;;;;16.63;13.32;;;;;;;;;;5040777;28;20183;-89
2021/01/25 07:35:49;;;;;;;23.23;12.98;;;;;;;;;;5040824;28;20269;-89
2021/01/25 07:38:17;;;;;;;19.88;15.80;;;;;;;;;;5040612;28;20275;-89
2021/01/25 07:40:45;;;;;;;25.35;18.88;;;;;;;;;;5040724;28;20187;-89
2021/01/25 07:43:16;;;;;;;36.67;25.95;;;;;;;;;;5041380;28;20206;-87
2021/01/25 07:45:43;;;;;;;23.10;16.75;;;;;;;;;;5040171;28;20529;-88
2021/01/25 07:48:11;;;;;;;22.25;14.43;;;;;;;;;;5040208;28;20282;-89
2021/01/25 07:50:39;;;;;;;17.88;14.15;;;;;;;;;;5040416;28;20194;-89
2021/01/25 07:53:08;;;;;;;21.15;15.70;;;;;;;;;;5040150;28;20185;-89
2021/01/25 07:55:38;;;;;;;15.13;11.13;;;;;;;;;;5040420;28;20183;-89
2021/01/25 07:58:09;;;;;;;14.90;11.05;;;;;;;;;;5040125;28;20562;-89
2021/01/25 08:00:39;;;;;;;13.82;10.68;;;;;;;;;;5039920;28;20182;-90
2021/01/25 08:03:13;;;;;;;16.55;12.07;;;;;;;;;;5040373;28;20202;-89
2021/01/25 08:05:41;;;;;;;14.23;11.15;;;;;;;;;;5040687;28;20205;-88
2021/01/25 08:08:11;;;;;;;15.85;11.98;;;;;;;;;;5039849;28;20179;-89
2021/01/25 08:10:38;;;;;;;12.95;10.15;;;;;;;;;;5040031;28;20189;-89
2021/01/25 08:13:17;;;;;;;15.45;11.13;;;;;;;;;;5040084;28;20297;-87
2021/01/25 08:16:00;;;;;;;13.73;10.38;;;;;;;;;;5039998;28;20182;-89
2021/01/25 08:18:33;;;;;;;13.55;10.43;;;;;;;;;;5040178;28;20583;-88
2021/01/25 08:21:01;;;;;;;13.88;10.80;;;;;;;;;;5039740;28;20567;-89
2021/01/25 08:23:28;;;;;;;13.90;10.40;;;;;;;;;;5040654;28;20186;-89
2021/01/25 08:25:58;;;;;;;16.70;11.55;;;;;;;;;;5039844;28;20199;-89
2021/01/25 08:28:29;;;;;;;15.57;10.20;;;;;;;;;;5040079;28;20272;-89
2021/01/25 08:31:10;;;;;;;12.60;9.98;;;;;;;;;;5039641;28;20190;-89
2021/01/25 08:33:39;;;;;;;12.43;10.55;;;;;;;;;;5039997;28;20270;-89
2021/01/25 08:36:09;;;;;;;16.13;11.07;;;;;;;;;;5039829;28;20206;-87
2021/01/25 08:38:40;;;;;;;16.13;11.48;;;;;;;;;;5039523;28;20206;-89
2021/01/25 08:41:21;;;;;;;12.55;9.52;;;;;;;;;;5039324;28;20580;-88
2021/01/25 08:43:55;;;;;;;12.07;9.40;;;;;;;;;;5039161;28;20210;-87
2021/01/25 08:46:30;;;;;;;15.32;10.68;;;;;;;;;;5039277;28;20218;-87
2021/01/25 08:49:10;;;;;;;17.63;12.13;;;;;;;;;;5039324;28;20191;-86
2021/01/25 08:51:37;;;;;;;15.13;11.35;;;;;;;;;;5039243;28;20197;-87
2021/01/25 08:54:12;;;;;;;15.13;12.25;;;;;;;;;;5039034;28;20174;-87
2021/01/25 08:56:41;;;;;;;16.73;12.68;;;;;;;;;;5039192;28;20239;-87
2021/01/25 08:59:11;;;;;;;15.57;10.88;;;;;;;;;;5038762;28;20226;-86
2021/01/25 09:01:40;;;;;;;14.77;11.90;;;;;;;;;;5038914;28;20268;-88
2021/01/25 09:04:07;;;;;;;14.85;10.77;;;;;;;;;;5038999;28;20191;-89
2021/01/25 09:06:38;;;;;;;15.15;12.18;;;;;;;;;;5038876;28;20277;-89
2021/01/25 09:09:06;;;;;;;16.85;11.30;;;;;;;;;;5038999;28;20289;-90
2021/01/25 09:11:34;;;;;;;18.52;13.55;;;;;;;;;;5039483;28;20245;-89
2021/01/25 09:14:01;;;;;;;16.83;11.95;;;;;;;;;;5039332;28;20522;-89
2021/01/25 09:16:28;;;;;;;16.88;12.95;;;;;;;;;;5038682;28;20198;-90
2021/01/25 09:18:56;;;;;;;19.10;12.63;;;;;;;;;;5038767;28;20475;-91
2021/01/25 09:21:23;;;;;;;17.05;13.18;;;;;;;;;;5038877;28;20360;-90
2021/01/25 09:23:50;;;;;;;16.83;13.02;;;;;;;;;;5039354;28;20454;-91
2021/01/25 09:26:17;;;;;;;17.65;13.48;;;;;;;;;;5038616;28;20179;-90
2021/01/25 09:28:44;;;;;;;17.75;13.13;;;;;;;;;;5039094;28;20218;-89
2021/01/25 09:31:11;;;;;;;17.85;13.23;;;;;;;;;;5038485;28;20571;-90
2021/01/25 09:33:38;;;;;;;17.50;13.27;;;;;;;;;;5039285;28;20220;-89
2021/01/25 09:36:07;;;;;;;15.32;11.93;;;;;;;;;;5039333;28;20434;-90
2021/01/25 09:38:34;;;;;;;14.93;11.02;;;;;;;;;;5038339;28;20189;-88
2021/01/25 09:41:01;;;;;;;15.57;12.68;;;;;;;;;;5038756;28;20464;-89
2021/01/25 09:43:28;;;;;;;14.77;10.75;;;;;;;;;;5038259;28;20183;-88
2021/01/25 09:45:55;;;;;;;10.95;9.15;;;;;;;;;;5038340;28;20491;-89
2021/01/25 09:48:22;;;;;;;16.67;11.98;;;;;;;;;;5038664;28;20259;-89
2021/01/25 09:50:50;;;;;;;16.65;12.40;;;;;;;;;;5038453;28;20179;-88
2021/01/25 09:53:18;;;;;;;17.13;11.27;;;;;;;;;;5038652;28;20233;-88
2021/01/25 09:55:45;;;;;;;15.13;11.60;;;;;;;;;;5038863;28;20202;-90
2021/01/25 09:58:12;;;;;;;15.32;11.50;;;;;;;;;;5038718;28;20317;-88
2021/01/25 10:00:39;;;;;;;17.35;13.48;;;;;;;;;;5038314;28;20229;-88
2021/01/25 10:03:06;;;;;;;16.45;12.38;;;;;;;;;;5038930;28;20453;-88
2021/01/25 10:05:33;;;;;;;19.27;12.02;;;;;;;;;;5038601;28;20277;-89
2021/01/25 10:08:00;;;;;;;15.73;12.70;;;;;;;;;;5037796;28;20195;-88
2021/01/25 10:10:28;;;;;;;18.60;12.25;;;;;;;;;;5039007;28;20257;-88
2021/01/25 10:12:56;;;;;;;15.07;11.52;;;;;;;;;;5038001;28;20182;-89
2021/01/25 10:15:23;;;;;;;81.25;21.17;;;;;;;;;;5038342;28;20206;-90
2021/01/25 10:17:50;;;;;;;30.10;12.43;;;;;;;;;;5038692;28;20202;-90
2021/01/25 10:20:18;;;;;;;12.90;10.38;;;;;;;;;;5038718;28;20311;-90
2021/01/25 10:22:45;;;;;;;15.27;11.13;;;;;;;;;;5038380;28;20203;-89
2021/01/25 10:25:14;;;;;;;10.70;8.85;;;;;;;;;;5038616;28;20198;-92
2021/01/25 10:27:42;;;;;;;12.25;9.60;;;;;;;;;;5040152;28;20209;-90
2021/01/25 10:30:11;;;;;;;10.70;9.23;;;;;;;;;;5042518;28;20235;-89
2021/01/25 10:32:38;;;;;;;13.68;9.32;;;;;;;;;;5042455;28;20202;-90
2021/01/25 10:35:08;;;;;;;11.00;8.65;;;;;;;;;;5042421;28;20275;-89
2021/01/25 10:37:35;;;;;;;11.85;9.43;;;;;;;;;;5042314;28;20530;-91
2021/01/25 10:40:02;;;;;;;14.20;9.20;;;;;;;;;;5042295;28;20226;-89
2021/01/25 10:42:29;;;;;;;11.13;9.00;;;;;;;;;;5042235;28;20213;-89
2021/01/25 10:44:57;;;;;;;15.40;9.45;;;;;;;;;;5042723;28;20281;-89
2021/01/25 10:47:24;;;;;;;13.90;9.43;;;;;;;;;;5041409;28;20572;-90
2021/01/25 10:49:52;;;;;;;11.40;9.50;;;;;;;;;;5041440;28;20221;-90
2021/01/25 10:52:19;;;;;;;11.00;8.93;;;;;;;;;;5042149;28;20206;-90
2021/01/25 10:54:46;;;;;;;13.45;8.75;;;;;;;;;;5041698;28;20203;-89
2021/01/25 10:57:13;;;;;;;12.23;9.48;;;;;;;;;;5041613;28;20517;-90
2021/01/25 10:59:40;;;;;;;10.77;8.60;;;;;;;;;;5040743;28;20555;-89
2021/01/25 11:02:08;;;;;;;10.75;8.23;;;;;;;;;;5042090;28;20199;-90
2021/01/25 11:04:35;;;;;;;11.55;9.35;;;;;;;;;;5041955;28;20195;-90
2021/01/25 11:07:02;;;;;;;11.52;8.25;;;;;;;;;;5041714;28;20204;-89
2021/01/25 11:09:30;;;;;;;12.48;9.45;;;;;;;;;;5041444;28;20195;-89
2021/01/25 11:11:57;;;;;;;13.60;9.73;;;;;;;;;;5042223;28;20201;-89
2021/01/25 11:14:24;;;;;;;10.23;8.18;;;;;;;;;;5041628;28;20496;-90
2021/01/25 11:16:51;;;;;;;9.30;8.00;;;;;;;;;;5041199;28;20201;-89
2021/01/25 11:19:19;;;;;;;10.50;8.48;;;;;;;;;;5041193;28;20233;-89
2021/01/25 11:21:46;;;;;;;11.50;8.35;;;;;;;;;;5041466;28;20199;-89
2021/01/25 11:24:13;;;;;;;9.68;8.20;;;;;;;;;;5041177;28;20194;-89
2021/01/25 11:26:41;;;;;;;12.80;8.23;;;;;;;;;;5041545;28;20209;-90
2021/01/25 11:29:09;;;;;;;10.38;9.30;;;;;;;;;;5040923;28;20265;-89
2021/01/25 11:31:37;;;;;;;12.50;8.55;;;;;;;;;;5041154;28;20270;-89
2021/01/25 11:34:04;;;;;;;11.40;7.78;;;;;;;;;;5043873;28;20202;-88
2021/01/25 11:36:32;;;;;;;9.70;8.10;;;;;;;;;;5044598;28;20237;-89
2021/01/25 11:38:59;;;;;;;10.10;8.13;;;;;;;;;;5045192;28;20178;-90
2021/01/25 11:41:26;;;;;;;7.68;6.88;;;;;;;;;;5043709;28;20242;-89
2021/01/25 11:43:53;;;;;;;8.98;6.82;;;;;;;;;;5041134;28;20633;-89
2021/01/25 11:46:20;;;;;;;7.72;6.97;;;;;;;;;;5040754;28;20228;-89
2021/01/25 11:48:47;;;;;;;9.13;7.38;;;;;;;;;;5041356;28;20220;-89
2021/01/25 11:51:14;;;;;;;8.35;7.20;;;;;;;;;;5041199;28;20198;-90
2021/01/25 11:53:42;;;;;;;8.98;7.05;;;;;;;;;;5040952;28;20211;-89
2021/01/25 11:56:09;;;;;;;7.60;6.85;;;;;;;;;;5040347;28;20201;-89
2021/01/25 11:58:37;;;;;;;12.18;10.88;;;;;;;;;;5040919;28;20230;-89
2021/01/25 12:01:04;;;;;;;9.85;8.60;;;;;;;;;;5040038;28;20222;-89
2021/01/25 12:03:32;;;;;;;8.52;7.57;;;;;;;;;;5039867;28;20468;-88
2021/01/25 12:05:59;;;;;;;8.77;7.90;;;;;;;;;;5040302;28;20187;-89
2021/01/25 12:08:26;;;;;;;12.05;9.13;;;;;;;;;;5040898;28;20194;-89
2021/01/25 12:10:55;;;;;;;8.82;7.38;;;;;;;;;;5040292;28;20205;-89
2021/01/25 12:13:22;;;;;;;13.88;10.10;;;;;;;;;;5040800;28;20179;-90
2021/01/25 12:15:49;;;;;;;9.82;7.95;;;;;;;;;;5040713;28;20278;-89
2021/01/25 12:18:16;;;;;;;11.38;8.65;;;;;;;;;;5039950;28;20175;-90
2021/01/25 12:20:42;;;;;;;12.95;7.85;;;;;;;;;;5040113;28;20226;-89
2021/01/25 12:23:09;;;;;;;12.93;8.10;;;;;;;;;;5040572;28;20198;-88
2021/01/25 12:25:36;;;;;;;9.40;7.45;;;;;;;;;;5040297;28;20286;-88
2021/01/25 12:28:07;;;;;;;9.18;8.27;;;;;;;;;;5039622;28;20214;-88
2021/01/25 12:30:34;;;;;;;9.57;7.65;;;;;;;;;;5039502;28;20187;-88
2021/01/25 12:33:01;;;;;;;8.02;7.03;;;;;;;;;;5040174;28;20478;-89
2021/01/25 12:35:29;;;;;;;10.45;8.13;;;;;;;;;;5040490;28;20256;-89
2021/01/25 12:37:56;;;;;;;13.60;11.32;;;;;;;;;;5040145;28;20198;-89
2021/01/25 12:40:24;;;;;;;11.90;8.38;;;;;;;;;;5040369;28;20309;-88
2021/01/25 12:42:52;;;;;;;11.40;8.27;;;;;;;;;;5039207;28;20190;-89
2021/01/25 12:45:23;;;;;;;18.45;10.38;;;;;;;;;;5039899;28;20221;-90
2021/01/25 12:47:50;;;;;;;15.38;8.93;;;;;;;;;;5039684;28;20278;-89
2021/01/25 12:50:17;;;;;;;10.77;8.40;;;;;;;;;;5038695;28;20186;-90
2021/01/25 12:52:45;;;;;;;11.07;8.35;;;;;;;;;;5039232;28;20216;-90
2021/01/25 12:55:13;;;;;;;11.00;7.75;;;;;;;;;;5040006;28;20244;-89
2021/01/25 12:57:41;;;;;;;12.30;9.85;;;;;;;;;;5039705;28;20194;-89
2021/01/25 13:00:13;;;;;;;9.77;8.77;;;;;;;;;;5039354;28;20280;-88
2021/01/25 13:02:41;;;;;;;8.10;7.28;;;;;;;;;;5039501;28;20175;-89
2021/01/25 13:05:11;;;;;;;9.35;8.32;;;;;;;;;;5039509;28;20194;-89
2021/01/25 13:07:38;;;;;;;10.73;8.95;;;;;;;;;;5039247;28;20496;-88
2021/01/25 13:10:07;;;;;;;9.73;7.97;;;;;;;;;;5039292;28;20432;-89
2021/01/25 13:12:36;;;;;;;9.70;7.35;;;;;;;;;;5039692;28;20211;-89
2021/01/25 13:15:06;;;;;;;7.20;6.50;;;;;;;;;;5039424;28;20205;-88
2021/01/25 13:17:33;;;;;;;7.93;6.78;;;;;;;;;;5039087;28;20496;-89
2021/01/25 13:20:03;;;;;;;10.85;8.00;;;;;;;;;;5039394;28;20202;-89
2021/01/25 13:22:30;;;;;;;8.48;6.97;;;;;;;;;;5039351;28;20213;-89
2021/01/25 13:24:57;;;;;;;8.48;7.65;;;;;;;;;;5039263;28;20194;-88
2021/01/25 13:27:24;;;;;;;12.38;7.22;;;;;;;;;;5039265;28;20285;-88
2021/01/25 13:29:51;;;;;;;7.95;7.00;;;;;;;;;;5038490;28;20211;-89
2021/01/25 13:32:17;;;;;;;9.45;7.45;;;;;;;;;;5038709;28;20182;-89
2021/01/25 13:34:44;;;;;;;11.45;8.52;;;;;;;;;;5038319;28;20208;-89
2021/01/25 13:37:12;;;;;;;8.13;7.30;;;;;;;;;;5038691;28;20202;-89
2021/01/25 13:39:41;;;;;;;7.53;6.75;;;;;;;;;;5038675;28;20249;-91
2021/01/25 13:42:08;;;;;;;8.02;6.93;;;;;;;;;;5038832;28;20222;-89
2021/01/25 13:44:36;;;;;;;8.07;6.75;;;;;;;;;;5039252;28;20202;-91
2021/01/25 13:47:03;;;;;;;11.90;8.18;;;;;;;;;;5038553;28;20274;-89
2021/01/25 13:49:30;;;;;;;9.75;8.02;;;;;;;;;;5038753;28;20240;-88
2021/01/25 13:51:58;;;;;;;8.88;8.00;;;;;;;;;;5038226;28;20194;-89
2021/01/25 13:54:25;;;;;;;9.57;7.40;;;;;;;;;;5039434;28;20198;-89
2021/01/25 13:56:52;;;;;;;12.13;9.52;;;;;;;;;;5038876;28;20272;-89
2021/01/25 13:59:20;;;;;;;9.88;7.70;;;;;;;;;;5038135;28;20229;-88
2021/01/25 14:01:47;;;;;;;12.32;8.27;;;;;;;;;;5040454;28;20305;-88
2021/01/25 14:04:14;;;;;;;9.70;8.30;;;;;;;;;;5042931;28;20195;-89
2021/01/25 14:06:41;;;;;;;9.77;7.32;;;;;;;;;;5042197;28;20273;-89
2021/01/25 14:09:08;;;;;;;9.18;6.88;;;;;;;;;;5042096;28;20179;-88
2021/01/25 14:11:35;;;;;;;6.72;5.97;;;;;;;;;;5042849;28;20198;-89
2021/01/25 14:14:02;;;;;;;6.03;5.50;;;;;;;;;;5042551;28;20273;-91
2021/01/25 14:21:41;;;;;;;10.80;5.88;;;;;;;;;;5000834;28;20219;-89
2021/01/25 14:24:08;;;;;;;5.95;5.15;;;;;;;;;;5002571;28;20545;-89
2021/01/25 14:26:36;;;;;;;5.70;5.18;;;;;;;;;;5000062;28;20199;-89
2021/01/25 14:29:03;;;;;;;7.95;7.15;;;;;;;;;;5002599;28;20202;-90
2021/01/25 14:31:30;;;;;;;6.75;6.05;;;;;;;;;;4987185;28;20230;-89
2021/01/25 14:33:57;;;;;;;6.78;6.13;;;;;;;;;;4993570;28;20294;-90
2021/01/25 14:36:25;;;;;;;6.30;5.75;;;;;;;;;;4983241;28;20284;-90
2021/01/25 14:38:52;;;;;;;6.88;6.25;;;;;;;;;;4983405;28;20523;-89
2021/01/25 14:41:21;;;;;;;5.10;4.60;;;;;;;;;;4995417;28;20612;-90